sensor_id;sensor_type;location;lat;lon;timestamp;pressure;altitude;pressure_sealevel;temperature;humidity
56414;BME280;42318;48.452;19.526;2023-01-20T00:05:25;97396.94;;;17.79;53.27
56414;BME280;42318;48.452;19.526;2023-01-20T00:12:56;97406.97;;;17.79;53.38
56414;BME280;42318;48.452;19.526;2023-01-20T00:20:27;97423.75;;;17.81;53.28
56414;BME280;42318;48.452;19.526;2023-01-20T00:27:58;97418.63;;;17.79;53.24
56414;BME280;42318;48.452;19.526;2023-01-20T00:35:28;97428.63;;;17.79;53.42
56414;BME280;42318;48.452;19.526;2023-01-20T00:42:59;97432.44;;;17.78;53.20
56414;BME280;42318;48.452;19.526;2023-01-20T00:50:30;97444.59;;;17.75;53.37
56414;BME280;42318;48.452;19.526;2023-01-20T00:58:01;97463.81;;;17.74;53.29
56414;BME280;42318;48.452;19.526;2023-01-20T01:05:32;97472.47;;;17.71;53.34
56414;BME280;42318;48.452;19.526;2023-01-20T01:13:03;97486.28;;;17.69;53.21
56414;BME280;42318;48.452;19.526;2023-01-20T01:20:37;97477.59;;;17.67;53.30
56414;BME280;42318;48.452;19.526;2023-01-20T01:28:08;97488.69;;;17.66;53.12
56414;BME280;42318;48.452;19.526;2023-01-20T01:35:39;97473.22;;;17.61;53.16
56414;BME280;42318;48.452;19.526;2023-01-20T01:43:20;97465.88;;;17.56;53.24
56414;BME280;42318;48.452;19.526;2023-01-20T01:50:55;97464.78;;;17.52;53.16
56414;BME280;42318;48.452;19.526;2023-01-20T01:58:34;97456.38;;;17.49;53.11
56414;BME280;42318;48.452;19.526;2023-01-20T02:06:05;97437.13;;;17.45;53.09
56414;BME280;42318;48.452;19.526;2023-01-20T02:13:37;97423.56;;;17.40;53.07
56414;BME280;42318;48.452;19.526;2023-01-20T02:37:08;97419.72;;;17.31;53.08
56414;BME280;42318;48.452;19.526;2023-01-20T02:45:20;97428.09;;;17.30;53.09
56414;BME280;42318;48.452;19.526;2023-01-20T02:52:50;97431.59;;;17.25;53.30
56414;BME280;42318;48.452;19.526;2023-01-20T03:00:26;97430.25;;;17.22;53.29
56414;BME280;42318;48.452;19.526;2023-01-20T03:08:01;97430.50;;;17.21;53.20
56414;BME280;42318;48.452;19.526;2023-01-20T03:15:41;97429.13;;;17.18;53.36
56414;BME280;42318;48.452;19.526;2023-01-20T03:23:16;97431.28;;;17.16;53.22
56414;BME280;42318;48.452;19.526;2023-01-20T03:30:47;97441.84;;;17.13;53.18
56414;BME280;42318;48.452;19.526;2023-01-20T03:38:18;97460.22;;;17.11;53.26
56414;BME280;42318;48.452;19.526;2023-01-20T03:46:04;97468.88;;;17.08;53.26
56414;BME280;42318;48.452;19.526;2023-01-20T03:53:49;97472.66;;;17.07;53.44
56414;BME280;42318;48.452;19.526;2023-01-20T04:01:26;97480.22;;;17.05;53.29
56414;BME280;42318;48.452;19.526;2023-01-20T04:09:11;97484.81;;;17.04;53.31
56414;BME280;42318;48.452;19.526;2023-01-20T04:16:54;97487.22;;;17.01;53.27
56414;BME280;42318;48.452;19.526;2023-01-20T04:24:32;97493.72;;;17.00;53.12
56414;BME280;42318;48.452;19.526;2023-01-20T04:32:06;97495.88;;;16.98;53.16
56414;BME280;42318;48.452;19.526;2023-01-20T04:39:36;97492.59;;;16.95;53.33
56414;BME280;42318;48.452;19.526;2023-01-20T04:47:07;97489.59;;;16.92;53.10
56414;BME280;42318;48.452;19.526;2023-01-20T04:54:38;97490.41;;;16.92;53.10
56414;BME280;42318;48.452;19.526;2023-01-20T05:02:09;97477.63;;;16.88;53.14
56414;BME280;42318;48.452;19.526;2023-01-20T05:09:39;97475.75;;;16.88;53.21
56414;BME280;42318;48.452;19.526;2023-01-20T05:17:10;97471.69;;;16.86;53.18
56414;BME280;42318;48.452;19.526;2023-01-20T05:24:41;97452.19;;;16.84;53.16
56414;BME280;42318;48.452;19.526;2023-01-20T05:32:11;97455.97;;;16.83;53.07
56414;BME280;42318;48.452;19.526;2023-01-20T05:39:42;97455.66;;;16.79;53.07
56414;BME280;42318;48.452;19.526;2023-01-20T05:47:13;97450.50;;;16.78;53.09
56414;BME280;42318;48.452;19.526;2023-01-20T05:54:44;97440.22;;;16.75;53.03
56414;BME280;42318;48.452;19.526;2023-01-20T06:02:15;97425.06;;;16.74;53.01
56414;BME280;42318;48.452;19.526;2023-01-20T06:09:48;97403.13;;;16.70;53.17
56414;BME280;42318;48.452;19.526;2023-01-20T06:17:18;97388.78;;;16.70;53.07
56414;BME280;42318;48.452;19.526;2023-01-20T06:24:49;97399.88;;;16.68;52.96
56414;BME280;42318;48.452;19.526;2023-01-20T06:32:21;97409.88;;;16.68;53.04
56414;BME280;42318;48.452;19.526;2023-01-20T06:39:52;97401.22;;;16.66;53.02
56414;BME280;42318;48.452;19.526;2023-01-20T06:47:23;97400.63;;;16.63;53.04
56414;BME280;42318;48.452;19.526;2023-01-20T06:54:53;97413.59;;;16.61;53.09
56414;BME280;42318;48.452;19.526;2023-01-20T07:02:24;97422.78;;;16.60;53.11
56414;BME280;42318;48.452;19.526;2023-01-20T07:09:55;97423.59;;;16.61;53.35
56414;BME280;42318;48.452;19.526;2023-01-20T07:17:26;97411.69;;;16.62;53.46
56414;BME280;42318;48.452;19.526;2023-01-20T07:24:57;97418.75;;;16.63;53.47
56414;BME280;42318;48.452;19.526;2023-01-20T07:32:30;97423.88;;;16.64;53.42
56414;BME280;42318;48.452;19.526;2023-01-20T07:40:01;97434.47;;;16.66;53.48
56414;BME280;42318;48.452;19.526;2023-01-20T07:47:32;97453.97;;;16.68;53.31
56414;BME280;42318;48.452;19.526;2023-01-20T07:55:03;97470.75;;;16.70;53.32
56414;BME280;42318;48.452;19.526;2023-01-20T08:02:38;97482.94;;;16.73;53.24
56414;BME280;42318;48.452;19.526;2023-01-20T08:10:09;97492.69;;;16.74;53.27
56414;BME280;42318;48.452;19.526;2023-01-20T08:17:40;97494.31;;;16.75;53.01
56414;BME280;42318;48.452;19.526;2023-01-20T08:25:11;97513.00;;;16.76;53.29
56414;BME280;42318;48.452;19.526;2023-01-20T08:32:42;97504.88;;;16.76;53.31
56414;BME280;42318;48.452;19.526;2023-01-20T08:40:13;97508.94;;;16.79;53.27
56414;BME280;42318;48.452;19.526;2023-01-20T08:47:44;97509.78;;;16.79;53.26
56414;BME280;42318;48.452;19.526;2023-01-20T08:55:15;97497.88;;;16.80;53.14
56414;BME280;42318;48.452;19.526;2023-01-20T09:02:46;97483.81;;;16.83;53.12
56414;BME280;42318;48.452;19.526;2023-01-20T09:10:17;97472.75;;;16.85;53.13
56414;BME280;42318;48.452;19.526;2023-01-20T09:17:49;97458.41;;;16.84;52.95
56414;BME280;42318;48.452;19.526;2023-01-20T09:25:20;97465.75;;;16.89;53.00
56414;BME280;42318;48.452;19.526;2023-01-20T09:32:50;97464.94;;;16.88;53.01
56414;BME280;42318;48.452;19.526;2023-01-20T09:40:34;97467.38;;;16.90;53.10
56414;BME280;42318;48.452;19.526;2023-01-20T09:48:37;97459.84;;;16.92;53.23
56414;BME280;42318;48.452;19.526;2023-01-20T09:56:34;97448.19;;;16.91;53.05
56414;BME280;42318;48.452;19.526;2023-01-20T10:04:22;97424.41;;;16.93;53.07
56414;BME280;42318;48.452;19.526;2023-01-20T10:12:02;97421.69;;;16.93;53.05
56414;BME280;42318;48.452;19.526;2023-01-20T10:19:41;97411.69;;;16.94;53.15
56414;BME280;42318;48.452;19.526;2023-01-20T10:27:15;97406.00;;;16.95;53.25
56414;BME280;42318;48.452;19.526;2023-01-20T10:34:47;97425.78;;;16.96;53.13
56414;BME280;42318;48.452;19.526;2023-01-20T10:42:20;97411.44;;;16.95;53.07
56414;BME280;42318;48.452;19.526;2023-01-20T10:57:31;97381.13;;;16.99;52.96
56414;BME280;42318;48.452;19.526;2023-01-20T11:05:17;97365.97;;;16.98;53.07
56414;BME280;42318;48.452;19.526;2023-01-20T11:12:54;97359.22;;;17.00;53.03
56414;BME280;42318;48.452;19.526;2023-01-20T11:20:26;97353.53;;;17.02;52.97
56414;BME280;42318;48.452;19.526;2023-01-20T11:27:57;97373.56;;;17.01;52.92
56414;BME280;42318;48.452;19.526;2023-01-20T11:35:28;97379.78;;;17.01;53.10
56414;BME280;42318;48.452;19.526;2023-01-20T11:42:59;97388.72;;;17.02;53.08
56414;BME280;42318;48.452;19.526;2023-01-20T11:50:35;97371.69;;;17.01;53.17
56414;BME280;42318;48.452;19.526;2023-01-20T11:58:16;97374.38;;;17.01;53.05
56414;BME280;42318;48.452;19.526;2023-01-20T12:14:18;97356.78;;;16.99;53.08
56414;BME280;42318;48.452;19.526;2023-01-20T12:21:54;97370.06;;;17.00;53.12
56414;BME280;42318;48.452;19.526;2023-01-20T12:29:45;97368.16;;;17.01;53.08
56414;BME280;42318;48.452;19.526;2023-01-20T12:52:47;97343.81;;;17.01;53.13
56414;BME280;42318;48.452;19.526;2023-01-20T13:00:23;97344.88;;;17.00;53.00
56414;BME280;42318;48.452;19.526;2023-01-20T13:16:07;97358.69;;;17.03;53.12
56414;BME280;42318;48.452;19.526;2023-01-20T13:23:40;97358.44;;;17.05;53.06
56414;BME280;42318;48.452;19.526;2023-01-20T13:31:40;97344.09;;;17.04;53.13
56414;BME280;42318;48.452;19.526;2023-01-20T13:39:45;97342.75;;;17.07;52.85
56414;BME280;42318;48.452;19.526;2023-01-20T13:47:16;97321.91;;;17.07;52.96
56414;BME280;42318;48.452;19.526;2023-01-20T13:55:26;97331.09;;;17.06;53.06
56414;BME280;42318;48.452;19.526;2023-01-20T14:02:57;97320.00;;;17.03;52.90
56414;BME280;42318;48.452;19.526;2023-01-20T14:10:28;97331.38;;;17.05;52.98
56414;BME280;42318;48.452;19.526;2023-01-20T14:17:59;97303.50;;;17.04;53.04
56414;BME280;42318;48.452;19.526;2023-01-20T14:25:30;97296.47;;;17.03;52.95
56414;BME280;42318;48.452;19.526;2023-01-20T14:33:05;97297.00;;;17.05;53.03
56414;BME280;42318;48.452;19.526;2023-01-20T14:40:39;97305.13;;;17.05;53.23
56414;BME280;42318;48.452;19.526;2023-01-20T14:48:13;97298.63;;;17.06;53.30
56414;BME280;42318;48.452;19.526;2023-01-20T14:55:58;97295.91;;;17.06;53.37
56414;BME280;42318;48.452;19.526;2023-01-20T15:03:30;97286.47;;;17.09;53.37
56414;BME280;42318;48.452;19.526;2023-01-20T15:26:43;97283.47;;;17.10;53.54
56414;BME280;42318;48.452;19.526;2023-01-20T15:34:15;97281.84;;;17.09;53.77
56414;BME280;42318;48.452;19.526;2023-01-20T15:41:46;97285.13;;;17.11;53.91
56414;BME280;42318;48.452;19.526;2023-01-20T15:49:18;97284.84;;;17.13;54.09
56414;BME280;42318;48.452;19.526;2023-01-20T15:56:49;97274.84;;;17.13;54.21
56414;BME280;42318;48.452;19.526;2023-01-20T16:04:20;97271.03;;;17.14;54.11
56414;BME280;42318;48.452;19.526;2023-01-20T16:11:51;97274.56;;;17.15;53.97
56414;BME280;42318;48.452;19.526;2023-01-20T16:19:22;97289.47;;;17.17;53.73
56414;BME280;42318;48.452;19.526;2023-01-20T16:26:53;97310.56;;;17.15;53.95
56414;BME280;42318;48.452;19.526;2023-01-20T16:34:23;97315.97;;;17.15;53.85
56414;BME280;42318;48.452;19.526;2023-01-20T16:41:54;97332.22;;;17.15;53.77
56414;BME280;42318;48.452;19.526;2023-01-20T16:49:25;97353.06;;;17.15;53.66
56414;BME280;42318;48.452;19.526;2023-01-20T16:56:56;97363.06;;;17.14;53.64
56414;BME280;42318;48.452;19.526;2023-01-20T17:04:26;97376.59;;;17.14;53.56
56414;BME280;42318;48.452;19.526;2023-01-20T17:11:59;97368.47;;;17.14;53.73
56414;BME280;42318;48.452;19.526;2023-01-20T17:19:29;97374.97;;;17.13;53.52
56414;BME280;42318;48.452;19.526;2023-01-20T17:27:00;97375.78;;;17.14;53.47
56414;BME280;42318;48.452;19.526;2023-01-20T17:34:31;97366.59;;;17.15;53.52
56414;BME280;42318;48.452;19.526;2023-01-20T17:42:02;97374.97;;;17.13;53.89
56414;BME280;42318;48.452;19.526;2023-01-20T17:49:32;97371.19;;;17.14;53.31
56414;BME280;42318;48.452;19.526;2023-01-20T17:57:03;97364.16;;;17.13;53.36
56414;BME280;42318;48.452;19.526;2023-01-20T18:04:34;97356.03;;;17.13;53.09
56414;BME280;42318;48.452;19.526;2023-01-20T18:12:05;97350.63;;;17.13;53.40
56414;BME280;42318;48.452;19.526;2023-01-20T18:19:36;97340.88;;;17.12;53.17
56414;BME280;42318;48.452;19.526;2023-01-20T18:27:06;97346.84;;;17.14;53.30
56414;BME280;42318;48.452;19.526;2023-01-20T18:34:37;97349.53;;;17.14;53.24
56414;BME280;42318;48.452;19.526;2023-01-20T18:42:08;97350.34;;;17.15;53.33
56414;BME280;42318;48.452;19.526;2023-01-20T18:49:39;97340.34;;;17.15;53.30
56414;BME280;42318;48.452;19.526;2023-01-20T18:57:09;97349.28;;;17.16;53.19
56414;BME280;42318;48.452;19.526;2023-01-20T19:04:40;97354.94;;;17.14;53.29
56414;BME280;42318;48.452;19.526;2023-01-20T19:12:11;97357.41;;;17.16;53.16
56414;BME280;42318;48.452;19.526;2023-01-20T19:19:42;97351.97;;;17.16;53.24
56414;BME280;42318;48.452;19.526;2023-01-20T19:27:17;97340.88;;;17.17;53.16
56414;BME280;42318;48.452;19.526;2023-01-20T19:34:48;97343.59;;;17.17;53.12
56414;BME280;42318;48.452;19.526;2023-01-20T19:42:19;97359.84;;;17.17;53.08
56414;BME280;42318;48.452;19.526;2023-01-20T19:49:50;97357.69;;;17.19;53.12
56414;BME280;42318;48.452;19.526;2023-01-20T19:57:21;97357.69;;;17.19;53.11
56414;BME280;42318;48.452;19.526;2023-01-20T20:04:52;97377.44;;;17.20;53.02
56414;BME280;42318;48.452;19.526;2023-01-20T20:12:22;97370.13;;;17.20;52.97
56414;BME280;42318;48.452;19.526;2023-01-20T20:19:53;97385.56;;;17.20;53.02
56414;BME280;42318;48.452;19.526;2023-01-20T20:27:24;97390.16;;;17.19;52.98
56414;BME280;42318;48.452;19.526;2023-01-20T20:34:55;97389.34;;;17.19;52.92
56414;BME280;42318;48.452;19.526;2023-01-20T20:42:28;97397.47;;;17.19;53.13
56414;BME280;42318;48.452;19.526;2023-01-20T20:49:59;97411.81;;;17.19;52.89
56414;BME280;42318;48.452;19.526;2023-01-20T20:57:31;97419.94;;;17.19;53.18
56414;BME280;42318;48.452;19.526;2023-01-20T21:05:02;97410.19;;;17.18;53.17
56414;BME280;42318;48.452;19.526;2023-01-20T21:12:33;97435.38;;;17.19;53.36
56414;BME280;42318;48.452;19.526;2023-01-20T21:20:05;97424.53;;;17.19;53.02
56414;BME280;42318;48.452;19.526;2023-01-20T21:27:36;97439.97;;;17.18;52.93
56414;BME280;42318;48.452;19.526;2023-01-20T21:35:08;97448.09;;;17.18;53.07
56414;BME280;42318;48.452;19.526;2023-01-20T21:42:39;97464.06;;;17.20;52.91
56414;BME280;42318;48.452;19.526;2023-01-20T21:50:10;97458.66;;;17.20;52.86
56414;BME280;42318;48.452;19.526;2023-01-20T21:57:59;97443.22;;;17.20;52.90
56414;BME280;42318;48.452;19.526;2023-01-20T22:05:30;97457.84;;;17.19;52.97
56414;BME280;42318;48.452;19.526;2023-01-20T22:13:01;97459.72;;;17.19;52.74
56414;BME280;42318;48.452;19.526;2023-01-20T22:20:32;97464.06;;;17.20;52.99
56414;BME280;42318;48.452;19.526;2023-01-20T22:28:02;97469.22;;;17.21;52.81
56414;BME280;42318;48.452;19.526;2023-01-20T22:35:33;97454.88;;;17.21;52.67
56414;BME280;42318;48.452;19.526;2023-01-20T22:43:04;97455.13;;;17.19;52.67
56414;BME280;42318;48.452;19.526;2023-01-20T22:50:35;97468.66;;;17.19;52.89
56414;BME280;42318;48.452;19.526;2023-01-20T22:58:06;97478.69;;;17.19;52.77
56414;BME280;42318;48.452;19.526;2023-01-20T23:05:36;97490.31;;;17.19;52.81
56414;BME280;42318;48.452;19.526;2023-01-20T23:13:07;97494.66;;;17.20;52.72
56414;BME280;42318;48.452;19.526;2023-01-20T23:20:38;97496.28;;;17.21;52.92
56414;BME280;42318;48.452;19.526;2023-01-20T23:28:10;97513.59;;;17.20;52.90
56414;BME280;42318;48.452;19.526;2023-01-20T23:35:41;97522.28;;;17.22;53.11
56414;BME280;42318;48.452;19.526;2023-01-20T23:43:11;97537.41;;;17.18;52.89
56414;BME280;42318;48.452;19.526;2023-01-20T23:50:42;97533.38;;;17.21;53.01
56414;BME280;42318;48.452;19.526;2023-01-20T23:58:13;97541.22;;;17.22;52.93
